Somers Lane, Pennsylvania
Current Conditions -  °F | °C
As of 3:53 AM on Wednesday 26 Nov 2014 (Local Time) from KELM Reporting Station
Overcast Overcast  
Wind Chill: 29°   Ceiling: 2400
Heat Index: 35°   Visibility: 10mi
Dew Point: 26°   Wind: 7mph
Humidity: 70%   Direction: 60°ENE
Pressure: 30.2"   Gusts: NA
Location:  41.971°N, 77.1237°W
Report Text: KELM 260853Z AUTO 06006KT 10SM BKN024 OVC032 02/M03 A3020 RMK AO2 SLP234 T00171033 51017
Loading
Personal Weather Stations






























Interactive Weather Map New forecast layout! Learn more

10-Day Weather Forecast

Advertisements
Track Severe Weather on mobile